Список аэропортов
Фактическая погода:

25 июня, 01:00
Температура: +18°C (+17.8*)
Ветер: сев.-западный 4 м/с
Давление: *762 мм
несуществ. обл.
Время (МСК)Темп. СВетерВлажностьДавлениеОблачностьОсадки
21:00+25Ю, 2 м/с47%1013 гПаоблачно
22:00+23Ю, 2 м/с55%1014 гПамалооблачно
23:00+22ЮЗ, 4 м/с63%1014 гПамалооблачно
25 июня
00:00+22ЮЗ, 4 м/с74%1014 гПамалооблачно
01:00+21ЮЗ, 4 м/с79%1014 гПаясно
02:00+21ЮЗ, 3 м/с85%1015 гПаясно
03:00+20ЮЗ, 3 м/с88%1015 гПаясно
04:00+20ЮЗ, 3 м/с90%1015 гПаясно
05:00+19ЮЗ, 3 м/с91%1015 гПамалооблачно
06:00+20ЮЗ, 3 м/с85%1015 гПамалооблачно
07:00+22ЮЗ, 3 м/с76%1014 гПас прояснениями
08:00+24З, 2 м/с67%1014 гПас прояснениями
09:00+26З, 1 м/с59%1014 гПамалооблачно
10:00+29С, 1 м/с49%1013 гПамалооблачно
11:00+31СВ, 3 м/с38%1012 гПаясно
12:00+33СВ, 4 м/с30%1012 гПаясно
13:00+34СВ, 4 м/с28%1011 гПаясно
14:00+34СВ, 4 м/с27%1011 гПаясно
15:00+34СВ, 5 м/с27%1011 гПаясно
16:00+34СВ, 5 м/с27%1010 гПамалооблачно
17:00+34В, 4 м/с27%1011 гПамалооблачно
18:00+33В, 4 м/с29%1011 гПамалооблачно
19:00+32В, 4 м/с32%1011 гПаясно
20:00+30В, 3 м/с38%1012 гПаясно
21:00+27В, 2 м/с47%1012 гПаясно
22:00+25ЮВ, 2 м/с56%1012 гПаясно
23:00+24Ю, 2 м/с66%1012 гПаясно
26 июня
00:00+22Ю, 1 м/с73%1012 гПаясно
01:00+21ЮЗ, 1 м/с78%1012 гПаясно
02:00+20Штиль 84%1012 гПаясно
03:00+20Ю, 2 м/с82%1012 гПаясно
04:00+19Ю, 2 м/с84%1012 гПаясно
05:00+18Ю, 1 м/с87%1012 гПаясно
06:00+20Штиль 82%1011 гПаясно
07:00+23С, 1 м/с67%1011 гПаясно
08:00+27СВ, 2 м/с55%1010 гПаясно
09:00+30СВ, 4 м/с46%1010 гПаясно
10:00+31СВ, 5 м/с33%1010 гПаясно
11:00+32СВ, 6 м/с25%1009 гПаясно
12:00+33СВ, 6 м/с23%1009 гПаясно
13:00+34СВ, 6 м/с22%1008 гПаясно
14:00+35В, 6 м/с22%1008 гПас прояснениями
15:00+34В, 6 м/с21%1008 гПаоблачно
16:00+33В, 6 м/с22%1008 гПаоблачно
17:00+33В, 5 м/с24%1008 гПаоблачно
18:00+33В, 5 м/с24%1008 гПас прояснениями
19:00+32СВ, 4 м/с26%1008 гПамалооблачно
20:00+30СВ, 3 м/с31%1009 гПамалооблачно
21:00+29СВ, 3 м/с34%1009 гПамалооблачно